EHWO/WOE METAR and TAF weather

Enter ICAO airport designator
Station Type Date Time Source
EHWO METAR 2022/06/30 01:25 UTC NOAA

EHWO 300125Z AUTO 29006KT 240V360 9999 NCD 17/13 Q1011 BLU


Station Type Date Time Source
EHWO Decoded METAR 2022/06/30 01:25 UTC NOAA

Woensdrecht, Netherlands (EHWO) 51-27N 004-20E 17M
Jun 29, 2022 - 09:25 PM EDT / 2022.06.30 0125 UTC
Wind: from the WNW (290 degrees) at 7 MPH (6 KT) (direction variable):0
Visibility: greater than 7 mile(s):0
Temperature: 62 F (17 C)
Dew Point: 55 F (13 C)
Relative Humidity: 77%
Pressure (altimeter): 29.85 in. Hg (1011 hPa)
ob: EHWO 300125Z AUTO 29006KT 240V360 9999 NCD 17/13 Q1011 BLU
cycle: 1

Station Type Date Time Source
EHWO TAF 2022/06/27 05:06 UTC NOAA

TAF EHWO 270445Z 2705/2717 VRB02KT CAVOK
BECMG 2707/2709 23004KT
TEMPO 2710/2714 VRB15G25KT 4000 SHRA SCT020CB BKN040 PROB40
TEMPO 2714/2717 SCT020CB

Example: see airport list